createdAt,value
2018-04-14T00:00:26.175Z,16.8
2018-04-14T00:06:16.884Z,19.38
2018-04-14T00:12:07.576Z,15.06
2018-04-14T00:17:58.209Z,13.12
2018-04-14T00:23:48.897Z,21.76
2018-04-14T00:29:39.502Z,13.68
2018-04-14T00:35:30.150Z,16.4
2018-04-14T00:41:20.832Z,16.67
2018-04-14T00:47:11.510Z,14.09
2018-04-14T00:53:02.123Z,14.32
2018-04-14T00:58:52.830Z,18.98
2018-04-14T01:04:43.567Z,14.85
2018-04-14T01:10:34.110Z,10.89
2018-04-14T01:16:24.751Z,14.23
2018-04-14T01:22:15.403Z,20.03
2018-04-14T01:28:06.050Z,16.59
2018-04-14T01:33:56.723Z,14.94
2018-04-14T01:39:47.339Z,18.55
2018-04-14T01:45:38.095Z,15.59
2018-04-14T01:51:28.713Z,12.27
2018-04-14T01:57:19.372Z,11.02
2018-04-14T02:03:10.029Z,11.02
2018-04-14T02:09:00.689Z,14.73
2018-04-14T02:14:51.353Z,16.42
2018-04-14T02:20:41.972Z,12.74
2018-04-14T02:26:32.602Z,15.61
2018-04-14T02:32:23.283Z,12.2
2018-04-14T02:38:13.873Z,12.21
2018-04-14T02:44:04.584Z,13.35
2018-04-14T02:49:55.184Z,16.55
2018-04-14T02:55:45.848Z,21.17
2018-04-14T03:01:36.472Z,11.33
2018-04-14T03:07:27.128Z,14.34
2018-04-14T03:13:17.739Z,11.95
2018-04-14T03:19:08.372Z,13.75
2018-04-14T03:24:59.034Z,12.37
2018-04-14T03:30:49.666Z,13.04
2018-04-14T03:36:40.288Z,18.95
2018-04-14T03:42:30.911Z,13.24
2018-04-14T03:48:21.570Z,16.08
2018-04-14T03:54:12.218Z,21.14
2018-04-14T04:00:02.978Z,21.08
2018-04-14T04:05:53.499Z,21.82
2018-04-14T04:11:44.212Z,21.84
2018-04-14T04:17:34.816Z,26.19
2018-04-14T04:23:25.429Z,14.34
2018-04-14T04:29:16.076Z,17.39
2018-04-14T04:35:06.697Z,21.59
2018-04-14T04:40:57.338Z,26.28
2018-04-14T04:46:48.023Z,33.67
2018-04-14T04:52:38.596Z,35.22
2018-04-14T04:58:29.342Z,32.51
2018-04-14T05:04:19.921Z,38.19
2018-04-14T05:10:10.587Z,25.03
2018-04-14T05:16:01.141Z,20.76
2018-04-14T05:21:51.829Z,18.26
2018-04-14T05:27:42.457Z,31.2
2018-04-14T05:33:33.137Z,37.27
2018-04-14T05:39:23.768Z,28.98
2018-04-14T05:45:14.421Z,26.27
2018-04-14T05:51:05.050Z,23.5
2018-04-14T05:56:55.734Z,18.35
2018-04-14T06:02:46.425Z,17.42
2018-04-14T06:08:37.062Z,19.01
2018-04-14T06:14:27.753Z,17.09
2018-04-14T06:20:18.367Z,18.52
2018-04-14T06:26:08.933Z,22.43
2018-04-14T06:31:59.556Z,20.75
2018-04-14T06:37:50.144Z,25.26
2018-04-14T06:43:40.741Z,15.32
2018-04-14T06:49:31.390Z,13.58
2018-04-14T06:55:22.102Z,14.98
2018-04-14T07:01:12.713Z,15.32
2018-04-14T07:07:03.312Z,15.19
2018-04-14T07:12:53.952Z,12.82
2018-04-14T07:18:44.612Z,18.34
2018-04-14T07:24:35.240Z,14.48
2018-04-14T07:30:25.865Z,22.99
2018-04-14T07:36:16.525Z,17.55
2018-04-14T07:42:07.174Z,13.45
2018-04-14T07:47:57.756Z,12.66
2018-04-14T07:53:48.433Z,15.64
2018-04-14T07:59:39.036Z,24.26
2018-04-14T08:05:29.719Z,22.04
2018-04-14T08:11:20.360Z,15.87
2018-04-14T08:17:10.925Z,19.04
2018-04-14T08:23:01.595Z,19.09
2018-04-14T08:28:52.317Z,16.85
2018-04-14T08:34:42.885Z,15.53
2018-04-14T08:40:33.537Z,13.5
2018-04-14T08:46:24.176Z,15.65
2018-04-14T08:52:14.792Z,17.85
2018-04-14T08:58:05.438Z,19.49
2018-04-14T09:03:56.073Z,16.79
2018-04-14T09:09:46.792Z,16.85
2018-04-14T09:15:37.357Z,16.79
2018-04-14T09:21:28.006Z,17.31
2018-04-14T09:27:18.634Z,15.37
2018-04-14T09:33:09.313Z,16.53
2018-04-14T09:38:59.982Z,15.94
2018-04-14T09:44:50.644Z,12.38
2018-04-14T09:50:41.295Z,12.64
2018-04-14T09:56:31.923Z,11.99
2018-04-14T10:02:22.571Z,14.75
2018-04-14T10:08:13.215Z,12.39
2018-04-14T10:14:03.872Z,17.97
2018-04-14T10:19:54.477Z,17.47
2018-04-14T10:25:45.174Z,8.19
2018-04-14T10:31:35.783Z,10.16
2018-04-14T10:37:26.544Z,11.4
2018-04-14T10:43:17.105Z,11.6
2018-04-14T10:49:07.726Z,17.14
2018-04-14T10:54:58.422Z,16.96
2018-04-14T11:00:49.047Z,23.04
2018-04-14T11:06:39.699Z,14.2
2018-04-14T11:12:30.330Z,8.68
2018-04-14T11:18:20.960Z,20.54
2018-04-14T11:24:11.697Z,13.56
2018-04-14T11:30:02.284Z,12.51
2018-04-14T11:35:52.902Z,13.81
2018-04-14T11:41:43.505Z,10.87
2018-04-14T11:47:34.171Z,17.01
2018-04-14T11:53:24.834Z,20.77
2018-04-14T11:59:15.436Z,27.33
2018-04-14T12:05:06.094Z,18.79
2018-04-14T12:10:56.689Z,12.2
2018-04-14T12:16:47.385Z,16.55
2018-04-14T12:22:38.050Z,17.3
2018-04-14T12:28:28.602Z,10.66
2018-04-14T12:34:19.221Z,8.65
2018-04-14T12:40:09.886Z,17.36
2018-04-14T12:46:00.504Z,10.02
2018-04-14T12:51:51.171Z,18.72
2018-04-14T12:57:41.861Z,13.51
2018-04-14T13:03:32.393Z,15.08
2018-04-14T13:09:23.010Z,11.44
2018-04-14T13:15:13.683Z,13.75
2018-04-14T13:21:04.309Z,11.46
2018-04-14T13:26:54.919Z,11.61
2018-04-14T13:32:45.604Z,13.13
2018-04-14T13:38:36.303Z,12.3
2018-04-14T13:44:26.855Z,15.14
2018-04-14T13:50:17.468Z,10.63
2018-04-14T13:56:08.194Z,20.24
2018-04-14T14:01:58.787Z,11.82
2018-04-14T14:07:49.483Z,13.91
2018-04-14T14:13:40.050Z,20.26
2018-04-14T14:19:30.685Z,17.1
2018-04-14T14:25:21.503Z,16.9
2018-04-14T14:31:12.058Z,17.28
2018-04-14T14:37:02.665Z,12.81
2018-04-14T14:42:53.342Z,16.42
2018-04-14T14:48:43.957Z,13.76
2018-04-14T14:54:34.581Z,16.58
2018-04-14T15:00:25.245Z,13.37
2018-04-14T15:06:15.895Z,10.83
2018-04-14T15:12:06.551Z,12.01
2018-04-14T15:17:57.217Z,16.49
2018-04-14T15:23:47.940Z,9.83
2018-04-14T15:29:38.572Z,12.58
2018-04-14T15:35:29.166Z,19.61
2018-04-14T15:41:19.878Z,11.82
2018-04-14T15:47:10.494Z,14.93
2018-04-14T15:53:01.117Z,14.42
2018-04-14T15:58:51.787Z,15.12
2018-04-14T16:04:42.429Z,12.24
2018-04-14T16:10:33.106Z,10.34
2018-04-14T16:16:23.670Z,11.06
2018-04-14T16:22:14.335Z,9.02
2018-04-14T16:28:04.985Z,10.13
2018-04-14T16:33:55.598Z,9.63
2018-04-14T16:39:46.244Z,11.27
2018-04-14T16:45:36.917Z,11.95
2018-04-14T16:51:27.525Z,7.81
2018-04-14T16:57:18.189Z,7.91
2018-04-14T17:03:08.824Z,9.14
2018-04-14T17:08:59.512Z,8.5
2018-04-14T17:14:50.081Z,10.08
2018-04-14T17:20:40.687Z,7.96
2018-04-14T17:26:31.359Z,5.86
2018-04-14T17:32:22.038Z,7.01
2018-04-14T17:38:12.744Z,6.97
2018-04-14T17:44:03.272Z,7.78
2018-04-14T17:49:53.902Z,5.64
2018-04-14T17:55:44.524Z,7.37
2018-04-14T18:01:35.256Z,6.12
2018-04-14T18:07:25.851Z,11.03
2018-04-14T18:13:16.428Z,6.63
2018-04-14T18:19:07.053Z,8.14
2018-04-14T18:24:57.708Z,11.75
2018-04-14T18:30:48.348Z,4.47
2018-04-14T18:36:38.973Z,7.59
2018-04-14T18:42:29.633Z,10.59
2018-04-14T18:48:20.279Z,8.46
2018-04-14T18:54:10.921Z,4.01
2018-04-14T19:00:01.577Z,7.42
2018-04-14T19:05:52.204Z,8.29
2018-04-14T19:11:42.846Z,7.25
2018-04-14T19:17:33.432Z,9.09
2018-04-14T19:23:24.103Z,8.55
2018-04-14T19:29:14.758Z,6.28
2018-04-14T19:35:05.385Z,8.12
2018-04-14T19:40:55.990Z,4.83
2018-04-14T19:46:46.601Z,5.55
2018-04-14T19:52:37.184Z,6.95
2018-04-14T19:58:27.837Z,6.02
2018-04-14T20:04:18.454Z,5.01
2018-04-14T20:10:09.115Z,9.55
2018-04-14T20:15:59.788Z,7.73
2018-04-14T20:21:50.368Z,8.48
2018-04-14T20:27:41.052Z,8.46
2018-04-14T20:33:31.580Z,8.3
2018-04-14T20:39:22.201Z,6.82
2018-04-14T20:45:12.826Z,5.95
2018-04-14T20:51:03.485Z,5.02
2018-04-14T20:56:54.121Z,11.56
2018-04-14T21:02:44.741Z,9.54
2018-04-14T21:08:35.360Z,4.65
2018-04-14T21:14:25.981Z,8.77
2018-04-14T21:20:16.637Z,8.12
2018-04-14T21:26:07.229Z,5.01
2018-04-14T21:31:57.956Z,8.01
2018-04-14T21:37:48.481Z,11.08
2018-04-14T21:43:39.106Z,7.28
2018-04-14T21:49:29.706Z,9.37
2018-04-14T21:55:20.383Z,7.47
2018-04-14T22:01:11.006Z,7.71
2018-04-14T22:07:01.593Z,7.47
2018-04-14T22:12:52.240Z,5.07
2018-04-14T22:18:42.827Z,6.2
2018-04-14T22:24:33.491Z,5.16
2018-04-14T22:30:24.084Z,5.2
2018-04-14T22:36:14.857Z,10.78
2018-04-14T22:42:05.385Z,6.81
2018-04-14T22:47:55.954Z,8.15
2018-04-14T22:53:46.612Z,7.2
2018-04-14T22:59:37.217Z,8.2
2018-04-14T23:05:27.877Z,5.19
2018-04-14T23:11:18.568Z,12.25
2018-04-14T23:17:09.089Z,8.69
2018-04-14T23:22:59.672Z,9.3
2018-04-14T23:28:50.317Z,9.55
2018-04-14T23:34:40.916Z,10.56
2018-04-14T23:40:31.567Z,8.66
2018-04-14T23:46:22.092Z,10.93
2018-04-14T23:52:12.736Z,10.16
2018-04-14T23:58:03.351Z,11.07
